Weott, California
Current Conditions -  °F | °C
As of 2:35 PM on Monday 22 Dec 2014 (Local Time) from KFOT Reporting Station
Overcast Overcast  
Wind Chill: 57°   Ceiling: 300
Heat Index: 57°   Visibility: 5mi
Dew Point: 57°   Wind: 7mph
Humidity: 100%   Direction: 290°WNW
Pressure: 30.31"   Gusts: NA
Location:  40.32°N, 123.92°W
Report Text: KFOT 222235Z AUTO 29006KT 5SM OVC003 14/14 A3031 RMK AO1
Loading
Personal Weather Stations






























Interactive Weather Map New forecast layout! Learn more

10-Day Weather Forecast

Advertisements
Track Severe Weather on mobile